PWSweather.com
Personal Weather Stations
Station Observations
REBOX73
Petalia At Mount Pantokrator, CorfuGR 49081

Petalia At Mount PantokratorCorfuGR 49081

Lat: 39.747915, Lon: 19.841466

Elevation: 2132

Station Type: ws1080

http://pantokratoras-kerkyra.meteoclub.gr/

High Low Average
Temperature 52.9°F11.6°F 49.6°F9.8°F 51.3°F10.7°F
Dew Point 51.8°F11.0°F 48.5°F9.2°F 50.4°F10.2°F
Winds 14.0 mph SE22.5 mph SE 1.0 mph 1.6 mph 5.8 mph 9.3 mph
Wind Gusts 15.0 mph24.1 mph 2.0 mph3.2 mph 9.2 mph14.8 mph
Humidity 100% 91% 97%
Pressure 30.29 in1025.70 in 30.17 in1021.70 in -
Precipitation 0.16 in4.10 in - -
Hour Temp Dew Point Humidity Winds Wind Gusts Pressure Precip Precip Rate Daily Precip Total
05:28 AM 51.5°F10.8°C 51.2°F10.7°C 99% 10.0 mph SW16.1 kmh SW 10.0 mph16.1 kmh 30.28 in1025.4 mb 0.00 in0.0 mm 0.00 in0.0 mm 0.59 in15.0 mm
05:30 AM 50.2°F10.1°C 49.4°F9.7°C 97% 1.0 mph N1.6 kmh N 2.0 mph3.2 kmh 30.26 in1024.7 mb 0.00 in0.0 mm 0.00 in0.0 mm 0.08 in2.0 mm
05:45 AM 49.8°F9.9°C 48.7°F9.3°C 96% 1.0 mph NW1.6 kmh NW 4.0 mph6.4 kmh 30.26 in1024.7 mb 0.00 in0.0 mm 0.00 in0.0 mm 0.08 in2.0 mm
06:00 AM 49.6°F9.8°C 48.8°F9.3°C 97% 1.0 mph SE1.6 kmh SE 5.0 mph8.0 kmh 30.26 in1024.7 mb 0.00 in0.0 mm 0.00 in0.0 mm 0.08 in2.0 mm
06:15 AM 49.8°F9.9°C 49.0°F9.4°C 97% 1.0 mph S1.6 kmh S 8.0 mph12.9 kmh 30.26 in1024.7 mb 0.00 in0.0 mm 0.00 in0.0 mm 0.08 in2.0 mm
06:30 AM 50.2°F10.1°C 49.4°F9.7°C 97% 2.0 mph S3.2 kmh S 7.0 mph11.3 kmh 30.26 in1024.7 mb 0.00 in0.0 mm 0.00 in0.0 mm 0.08 in2.0 mm
08:45 AM 50.2°F10.1°C 48.5°F9.2°C 94% 1.0 mph SE1.6 kmh SE 5.0 mph8.0 kmh 30.27 in1025.1 mb 0.00 in0.0 mm 0.00 in0.0 mm 0.08 in2.0 mm
09:45 AM 51.4°F10.8°C 50.1°F10.1°C 95% 2.0 mph S3.2 kmh S 6.0 mph9.7 kmh 30.28 in1025.4 mb 0.00 in0.0 mm 0.00 in0.0 mm 0.08 in2.0 mm
10:00 AM 51.6°F10.9°C 49.9°F9.9°C 94% 2.0 mph WSW3.2 kmh WSW 8.0 mph12.9 kmh 30.28 in1025.4 mb 0.00 in0.0 mm 0.00 in0.0 mm 0.08 in2.0 mm
10:30 AM 51.4°F10.8°C 49.8°F9.9°C 94% 2.0 mph SSE3.2 kmh SSE 9.0 mph14.5 kmh 30.27 in1025.1 mb 0.00 in0.0 mm 0.00 in0.0 mm 0.08 in2.0 mm
10:45 AM 51.4°F10.8°C 50.1°F10.1°C 95% 3.0 mph SW4.8 kmh SW 12.0 mph19.3 kmh 30.27 in1025.1 mb 0.00 in0.0 mm 0.00 in0.0 mm 0.08 in2.0 mm
11:00 AM 51.4°F10.8°C 49.5°F9.7°C 93% 3.0 mph SSW4.8 kmh SSW 7.0 mph11.3 kmh 30.27 in1025.1 mb 0.00 in0.0 mm 0.00 in0.0 mm 0.08 in2.0 mm
11:15 AM 52.2°F11.2°C 50.5°F10.3°C 94% 2.0 mph SSW3.2 kmh SSW 6.0 mph9.7 kmh 30.27 in1025.1 mb 0.00 in0.0 mm 0.00 in0.0 mm 0.08 in2.0 mm
11:30 AM 52.2°F11.2°C 50.5°F10.3°C 94% 2.0 mph SSW3.2 kmh SSW 9.0 mph14.5 kmh 30.26 in1024.7 mb 0.00 in0.0 mm 0.00 in0.0 mm 0.08 in2.0 mm
01:15 PM 52.7°F11.5°C 50.7°F10.4°C 93% 3.0 mph SSW4.8 kmh SSW 8.0 mph12.9 kmh 30.22 in1023.4 mb 0.00 in0.0 mm 0.00 in0.0 mm 0.08 in2.0 mm
01:30 PM 52.9°F11.6°C 50.3°F10.2°C 91% 4.0 mph SW6.4 kmh SW 11.0 mph17.7 kmh 30.22 in1023.4 mb 0.00 in0.0 mm 0.00 in0.0 mm 0.08 in2.0 mm
01:45 PM 52.3°F11.3°C 50.1°F10.1°C 92% 3.0 mph SW4.8 kmh SW 10.0 mph16.1 kmh 30.22 in1023.4 mb 0.00 in0.0 mm 0.00 in0.0 mm 0.08 in2.0 mm
02:00 PM 52.7°F11.5°C 50.1°F10.1°C 91% 3.0 mph SW4.8 kmh SW 10.0 mph16.1 kmh 30.22 in1023.4 mb 0.00 in0.0 mm 0.00 in0.0 mm 0.08 in2.0 mm
02:15 PM 52.7°F11.5°C 50.1°F10.1°C 91% 3.0 mph SW4.8 kmh SW 8.0 mph12.9 kmh 30.21 in1023.0 mb 0.00 in0.0 mm 0.00 in0.0 mm 0.08 in2.0 mm
02:45 PM 52.2°F11.2°C 50.5°F10.3°C 94% 2.0 mph SW3.2 kmh SW 10.0 mph16.1 kmh 30.21 in1023.0 mb 0.00 in0.0 mm 0.00 in0.0 mm 0.08 in2.0 mm
04:00 PM 51.4°F10.8°C 50.1°F10.1°C 95% 2.0 mph W3.2 kmh W 12.0 mph19.3 kmh 30.20 in1022.7 mb 0.00 in0.0 mm 0.00 in0.0 mm 0.08 in2.0 mm
04:15 PM 51.6°F10.9°C 50.5°F10.3°C 96% 3.0 mph SW4.8 kmh SW 9.0 mph14.5 kmh 30.20 in1022.7 mb 0.00 in0.0 mm 0.00 in0.0 mm 0.08 in2.0 mm
04:30 PM 51.6°F10.9°C 50.8°F10.4°C 97% 3.0 mph S4.8 kmh S 10.0 mph16.1 kmh 30.19 in1022.4 mb 0.00 in0.0 mm 0.00 in0.0 mm 0.08 in2.0 mm
05:00 PM 51.4°F10.8°C 51.4°F10.8°C 100% 5.0 mph S8.0 kmh S 13.0 mph20.9 kmh 30.17 in1021.7 mb 0.00 in0.0 mm 0.00 in0.0 mm 0.08 in2.0 mm
05:30 PM 51.8°F11.0°C 51.8°F11.0°C 100% 4.0 mph WSW6.4 kmh WSW 15.0 mph24.1 kmh 30.17 in1021.7 mb 0.00 in0.0 mm 0.00 in0.0 mm 0.08 in2.0 mm